Terminal Aerodrome Forecast
Issued by NWS

Home | Current Version | Previous Version | Text Only | Print | Product List | Glossary On
Versions: 1 2 3 4 5 6 7 8 9 10 11 12 13 14 15 16 17 18 19 20
075
FTUS41 KPHI 071310 AAA
TAFPNE
TAF AMD
KPNE 071310Z 0713/0812 33006KT 4SM -DZ BR OVC009
      TEMPO 0714/0716 P6SM NSW OVC011
     FM071600 31008KT P6SM BKN022
     FM071900 30010KT P6SM SCT025 BKN120
     FM080000 30004KT P6SM BKN150=

USA.gov is the U.S. government's official web portal to all federal, state and local government web resources and services.